Time,TemperatureF,DewpointF,PressureIn,WindDirection,WindDirectionDegrees,WindSpeedMPH,WindSpeedGustMPH,Humidity,HourlyPrecipIn,Conditions,Clouds,dailyrainin,SoftwareType,DateUTC
2013-08-14 01:00:00,41.0,24.0,-100.00,North,-999,-999.0,-999.0,51,-99.99,,,0.01,,2013-08-14 07:00:00,
2013-08-14 01:52:00,41.0,24.0,-100.00,North,-999,-999.0,-999.0,51,-99.99,,,0.01,,2013-08-14 07:52:00,
2013-08-14 02:00:00,42.0,25.0,-100.00,North,-999,-999.0,-999.0,51,-99.99,,,0.01,,2013-08-14 08:00:00,
2013-08-14 02:52:00,42.0,25.0,-100.00,North,-999,-999.0,-999.0,51,-99.99,,,0.01,,2013-08-14 08:52:00,
2013-08-14 03:00:00,40.0,23.0,-100.00,North,-999,-999.0,-999.0,51,-99.99,,,0.01,,2013-08-14 09:00:00,
2013-08-14 03:53:00,40.0,23.0,-100.00,North,-999,-999.0,-999.0,51,-99.99,,,0.01,,2013-08-14 09:53:00,
2013-08-14 04:00:00,40.0,23.0,-100.00,North,-999,-999.0,-999.0,52,-99.99,,,0.01,,2013-08-14 10:00:00,
2013-08-14 04:52:00,40.0,23.0,-100.00,North,-999,-999.0,-999.0,52,-99.99,,,0.01,,2013-08-14 10:52:00,
2013-08-14 05:00:00,35.0,21.0,-100.00,North,-999,-999.0,-999.0,55,-99.99,,,0.01,,2013-08-14 11:00:00,
2013-08-14 05:52:00,35.0,21.0,-100.00,North,-999,-999.0,-999.0,55,-99.99,,,0.01,,2013-08-14 11:52:00,
2013-08-14 07:00:00,36.0,22.0,-100.00,North,-999,-999.0,-999.0,55,-99.99,,,0.01,,2013-08-14 13:00:00,
2013-08-14 07:52:00,36.0,22.0,-100.00,North,-999,-999.0,-999.0,55,-99.99,,,0.01,,2013-08-14 13:52:00,
2013-08-14 08:00:00,43.0,28.0,-100.00,North,-999,-999.0,-999.0,55,-99.99,,,0.01,,2013-08-14 14:00:00,
2013-08-14 08:52:00,43.0,28.0,-100.00,North,-999,-999.0,-999.0,55,-99.99,,,0.01,,2013-08-14 14:52:00,
2013-08-14 10:00:00,56.0,40.0,-100.00,North,-999,-999.0,-999.0,56,-99.99,,,0.00,,2013-08-14 16:00:00,
2013-08-14 13:00:00,65.0,49.0,-100.00,North,-999,-999.0,-999.0,56,-99.99,,,0.00,,2013-08-14 19:00:00,
2013-08-14 13:57:00,65.0,49.0,-100.00,North,-999,-999.0,-999.0,56,-99.99,,,0.00,,2013-08-14 19:57:00,
2013-08-14 15:00:00,64.0,48.0,-100.00,North,-999,-999.0,-999.0,56,-99.99,,,-99.99,,2013-08-14 21:00:00,
2013-08-14 15:55:00,64.0,48.0,-100.00,North,-999,-999.0,-999.0,56,-99.99,,,-99.99,,2013-08-14 21:55:00,
2013-08-14 21:00:00,52.0,37.0,-100.00,North,-999,-999.0,-999.0,57,-99.99,,,-99.99,,2013-08-15 03:00:00,
2013-08-14 21:53:00,52.0,37.0,-100.00,North,-999,-999.0,-999.0,57,-99.99,,,-99.99,,2013-08-15 03:53:00,
2013-08-14 22:00:00,48.0,34.0,-100.00,North,-999,-999.0,-999.0,58,-99.99,,,-99.99,,2013-08-15 04:00:00,
2013-08-14 22:52:00,48.0,34.0,-100.00,North,-999,-999.0,-999.0,58,-99.99,,,-99.99,,2013-08-15 04:52:00,
2013-08-14 23:00:00,47.0,33.0,-100.00,North,-999,-999.0,-999.0,58,-99.99,,,0.00,,2013-08-15 05:00:00,
2013-08-14 23:52:00,47.0,33.0,-100.00,North,-999,-999.0,-999.0,58,-99.99,,,0.00,,2013-08-15 05:52:00,